createdAt,value
2023-04-18T00:00:44.099Z,84.73
2023-04-18T00:03:16.903Z,85.01
2023-04-18T00:05:48.386Z,85.05
2023-04-18T00:08:16.447Z,85.26
2023-04-18T00:10:44.473Z,85.48
2023-04-18T00:13:12.862Z,84.37
2023-04-18T00:15:43.970Z,84.28
2023-04-18T00:18:21.752Z,84.70
2023-04-18T00:20:50.103Z,84.71
2023-04-18T00:23:18.716Z,84.63
2023-04-18T00:25:46.803Z,85.34
2023-04-18T00:28:15.045Z,84.62
2023-04-18T00:30:42.935Z,84.49
2023-04-18T00:33:11.093Z,84.64
2023-04-18T00:35:39.492Z,85.14
2023-04-18T00:38:08.975Z,85.04
2023-04-18T00:40:38.062Z,85.27
2023-04-18T00:43:08.488Z,84.84
2023-04-18T00:45:37.193Z,85.02
2023-04-18T00:48:05.489Z,84.95
2023-04-18T00:50:33.656Z,85.20
2023-04-18T00:53:02.955Z,85.49
2023-04-18T00:55:31.122Z,85.43
2023-04-18T00:57:59.272Z,84.93
2023-04-18T01:00:27.423Z,85.13
2023-04-18T01:02:56.383Z,85.60
2023-04-18T01:05:27.099Z,85.74
2023-04-18T01:08:01.200Z,85.32
2023-04-18T01:10:31.178Z,84.87
2023-04-18T01:13:16.157Z,85.29
2023-04-18T01:15:49.043Z,85.04
2023-04-18T01:18:18.117Z,85.08
2023-04-18T01:22:02.708Z,85.41
2023-04-18T01:24:36.501Z,85.59
2023-04-18T01:27:04.621Z,85.65
2023-04-18T01:29:35.048Z,85.37
2023-04-18T01:32:04.353Z,85.21
2023-04-18T01:34:32.540Z,84.63
2023-04-18T01:37:00.492Z,84.84
2023-04-18T01:39:28.970Z,85.24
2023-04-18T01:41:57.280Z,85.76
2023-04-18T01:44:25.163Z,85.29
2023-04-18T01:46:53.242Z,85.85
2023-04-18T01:49:21.401Z,85.79
2023-04-18T01:51:50.370Z,85.28
2023-04-18T01:54:18.300Z,85.12
2023-04-18T01:56:46.551Z,85.44
2023-04-18T01:59:14.464Z,85.58
2023-04-18T02:01:42.974Z,85.48
2023-04-18T02:04:11.773Z,85.75
2023-04-18T02:06:39.842Z,86.10
2023-04-18T02:09:07.828Z,85.96
2023-04-18T02:11:36.012Z,86.07
2023-04-18T02:14:04.377Z,86.16
2023-04-18T02:16:32.439Z,85.69
2023-04-18T02:19:01.538Z,85.96
2023-04-18T02:21:30.471Z,85.94
2023-04-18T02:23:58.554Z,86.02
2023-04-18T02:26:26.820Z,85.86
2023-04-18T02:28:58.865Z,85.85
2023-04-18T02:31:27.226Z,85.88
2023-04-18T02:33:55.178Z,86.01
2023-04-18T02:36:23.625Z,86.05
2023-04-18T02:38:51.903Z,85.99
2023-04-18T02:41:21.192Z,86.20
2023-04-18T02:43:49.227Z,85.87
2023-04-18T02:46:18.122Z,86.15
2023-04-18T02:48:48.302Z,86.08
2023-04-18T02:51:16.954Z,86.21
2023-04-18T02:53:45.414Z,86.14
2023-04-18T02:56:17.660Z,86.15
2023-04-18T02:59:18.071Z,85.78
2023-04-18T03:02:21.192Z,85.88
2023-04-18T03:04:53.624Z,86.19
2023-04-18T03:07:21.862Z,86.27
2023-04-18T03:09:50.295Z,85.84
2023-04-18T03:12:23.172Z,86.10
2023-04-18T03:14:51.076Z,86.13
2023-04-18T03:17:19.247Z,86.33
2023-04-18T03:19:49.788Z,86.40
2023-04-18T03:22:20.063Z,86.47
2023-04-18T03:24:55.399Z,86.31
2023-04-18T03:27:26.228Z,86.03
2023-04-18T03:29:54.589Z,86.02
2023-04-18T03:32:23.786Z,86.31
2023-04-18T03:34:51.802Z,86.55
2023-04-18T03:37:20.097Z,86.46
2023-04-18T03:39:51.664Z,86.18
2023-04-18T03:42:19.864Z,86.50
2023-04-18T03:44:47.971Z,86.84
2023-04-18T03:47:17.228Z,87.06
2023-04-18T03:49:48.004Z,87.26
2023-04-18T03:52:16.173Z,87.26
2023-04-18T03:54:44.487Z,86.89
2023-04-18T03:57:12.890Z,86.87
2023-04-18T03:59:41.521Z,87.14
2023-04-18T04:02:09.962Z,87.19
2023-04-18T04:04:38.641Z,87.11
2023-04-18T04:07:06.818Z,86.80
2023-04-18T04:09:35.054Z,87.29
2023-04-18T04:12:03.117Z,87.36
2023-04-18T04:14:31.259Z,86.68
2023-04-18T04:16:59.493Z,86.63
2023-04-18T04:19:27.457Z,86.74
2023-04-18T04:22:05.303Z,86.94
2023-04-18T04:24:33.855Z,86.94
2023-04-18T04:27:03.789Z,87.02
2023-04-18T04:29:33.028Z,86.92
2023-04-18T04:32:01.216Z,87.05
2023-04-18T04:34:35.871Z,87.07
2023-04-18T04:37:05.560Z,86.34
2023-04-18T04:39:37.589Z,86.69
2023-04-18T04:42:25.516Z,86.37
2023-04-18T04:45:03.878Z,86.39
2023-04-18T04:47:32.059Z,86.57
2023-04-18T04:49:59.976Z,86.17
2023-04-18T04:52:28.494Z,86.46
2023-04-18T04:54:56.630Z,86.41
2023-04-18T04:57:26.454Z,86.31
2023-04-18T04:59:54.722Z,86.53
2023-04-18T05:02:23.613Z,86.71
2023-04-18T05:04:51.626Z,86.90
2023-04-18T05:07:19.866Z,86.83
2023-04-18T05:09:47.954Z,86.67
2023-04-18T05:12:15.870Z,86.58
2023-04-18T05:14:43.948Z,86.46
2023-04-18T05:17:11.824Z,86.60
2023-04-18T05:19:40.301Z,86.48
2023-04-18T05:22:08.358Z,86.47
2023-04-18T05:24:36.318Z,86.44
2023-04-18T05:27:04.568Z,86.15
2023-04-18T05:29:32.746Z,86.19
2023-04-18T05:32:01.769Z,86.31
2023-04-18T05:34:30.176Z,86.59
2023-04-18T05:36:58.606Z,86.66
2023-04-18T05:39:26.848Z,86.64
2023-04-18T05:41:54.756Z,86.52
2023-04-18T05:44:24.410Z,86.46
2023-04-18T05:46:52.503Z,86.35
2023-04-18T05:49:20.463Z,86.35
2023-04-18T05:51:53.055Z,86.30
2023-04-18T05:54:21.587Z,86.07
2023-04-18T05:56:49.868Z,85.94
2023-04-18T05:59:18.027Z,85.79
2023-04-18T06:01:45.933Z,85.82
2023-04-18T06:04:14.442Z,85.87
2023-04-18T06:06:42.992Z,85.92
2023-04-18T06:09:11.237Z,85.65
2023-04-18T06:11:39.255Z,85.67
2023-04-18T06:14:08.020Z,85.48
2023-04-18T06:16:37.527Z,85.37
2023-04-18T06:19:05.973Z,85.49
2023-04-18T06:21:34.095Z,85.40
2023-04-18T06:24:02.348Z,85.18
2023-04-18T06:26:32.180Z,85.06
2023-04-18T06:29:00.261Z,84.92
2023-04-18T06:31:28.304Z,84.63
2023-04-18T06:33:57.080Z,84.56
2023-04-18T06:36:27.030Z,84.43
2023-04-18T06:38:55.052Z,84.36
2023-04-18T06:41:23.583Z,84.18
2023-04-18T06:44:02.919Z,84.03
2023-04-18T06:46:33.112Z,83.96
2023-04-18T06:49:02.179Z,83.81
2023-04-18T06:51:30.132Z,83.67
2023-04-18T06:54:00.378Z,83.59
2023-04-18T06:56:29.898Z,83.43
2023-04-18T06:58:57.796Z,83.56
2023-04-18T07:01:26.043Z,83.51
2023-04-18T07:03:54.311Z,83.54
2023-04-18T07:06:22.486Z,83.32
2023-04-18T07:08:52.206Z,83.12
2023-04-18T07:11:23.738Z,83.13
2023-04-18T07:13:51.727Z,83.23
2023-04-18T07:16:20.467Z,83.31
2023-04-18T07:18:48.693Z,83.16
2023-04-18T07:21:16.666Z,83.05
2023-04-18T07:23:47.522Z,82.88
2023-04-18T07:26:16.020Z,82.80
2023-04-18T07:28:44.391Z,82.70
2023-04-18T07:31:14.596Z,82.38
2023-04-18T07:33:43.940Z,82.34
2023-04-18T07:36:12.913Z,82.14
2023-04-18T07:38:40.978Z,82.19
2023-04-18T07:41:09.198Z,81.92
2023-04-18T07:43:38.854Z,81.73
2023-04-18T07:46:08.669Z,81.66
2023-04-18T07:48:36.984Z,81.82
2023-04-18T07:51:05.358Z,81.71
2023-04-18T07:53:33.433Z,81.74
2023-04-18T07:56:03.083Z,81.64
2023-04-18T07:58:31.216Z,81.52
2023-04-18T08:00:59.227Z,81.26
2023-04-18T08:03:28.168Z,81.04
2023-04-18T08:05:56.909Z,81.04
2023-04-18T08:08:29.429Z,81.06
2023-04-18T08:10:57.407Z,81.11
2023-04-18T08:13:25.925Z,81.12
2023-04-18T08:15:56.143Z,81.20
2023-04-18T08:18:24.188Z,81.05
2023-04-18T08:20:52.283Z,80.87
2023-04-18T08:23:20.890Z,80.77
2023-04-18T08:25:49.150Z,80.87
2023-04-18T08:28:17.504Z,80.53
2023-04-18T08:30:49.057Z,80.31
2023-04-18T08:33:18.555Z,79.78
2023-04-18T08:38:44.207Z,79.70
2023-04-18T08:41:12.395Z,79.66
2023-04-18T08:43:40.305Z,79.58
2023-04-18T08:46:09.386Z,79.46
2023-04-18T08:48:38.283Z,79.60
2023-04-18T08:51:06.294Z,78.93
2023-04-18T08:53:34.399Z,78.48
2023-04-18T08:56:03.031Z,78.31
2023-04-18T08:58:33.846Z,77.45
2023-04-18T09:01:02.634Z,77.75
2023-04-18T09:03:41.316Z,77.45
2023-04-18T09:06:21.225Z,77.04
2023-04-18T09:08:59.284Z,76.95
2023-04-18T09:11:29.918Z,76.79
2023-04-18T09:13:59.135Z,76.34
2023-04-18T09:16:28.144Z,76.88
2023-04-18T09:19:18.740Z,77.40
2023-04-18T09:21:57.100Z,77.38
2023-04-18T09:24:27.262Z,77.18
2023-04-18T09:26:57.336Z,77.03
2023-04-18T09:29:49.758Z,76.90
2023-04-18T09:32:27.182Z,77.24
2023-04-18T09:34:58.865Z,76.75
2023-04-18T09:37:28.210Z,76.68
2023-04-18T09:39:56.059Z,74.23
2023-04-18T09:42:26.754Z,74.51
2023-04-18T09:45:06.598Z,73.59
2023-04-18T09:47:36.752Z,72.49
2023-04-18T09:50:12.009Z,73.16
2023-04-18T09:52:42.101Z,71.77
2023-04-18T09:55:19.562Z,71.52
2023-04-18T09:57:49.075Z,71.84
2023-04-18T10:00:24.852Z,71.54
2023-04-18T10:03:10.753Z,71.18
2023-04-18T10:05:41.544Z,71.93
2023-04-18T10:08:10.604Z,71.68
2023-04-18T10:10:39.168Z,70.57
2023-04-18T10:13:13.675Z,70.94
2023-04-18T10:15:44.077Z,70.64
2023-04-18T10:18:18.769Z,70.40
2023-04-18T10:20:47.441Z,69.95
2023-04-18T10:23:31.081Z,69.25
2023-04-18T10:25:59.771Z,70.17
2023-04-18T10:28:41.111Z,69.14
2023-04-18T10:31:09.375Z,68.79
2023-04-18T10:33:42.807Z,68.13
2023-04-18T10:36:13.945Z,68.86
2023-04-18T10:38:50.584Z,67.37
2023-04-18T10:41:27.139Z,67.85
2023-04-18T10:44:08.652Z,67.12
2023-04-18T10:46:44.096Z,67.45
2023-04-18T10:49:20.166Z,67.33
2023-04-18T10:51:49.872Z,68.22
2023-04-18T10:54:32.948Z,67.08
2023-04-18T10:57:03.939Z,67.40
2023-04-18T10:59:34.843Z,67.98
2023-04-18T11:02:18.126Z,67.89
2023-04-18T11:04:57.745Z,67.74
2023-04-18T11:07:38.498Z,68.40
2023-04-18T11:10:09.341Z,68.10
2023-04-18T11:12:39.702Z,67.94
2023-04-18T11:15:14.550Z,67.91
2023-04-18T11:17:43.886Z,67.66
2023-04-18T11:20:15.562Z,68.40
2023-04-18T11:22:49.780Z,68.00
2023-04-18T11:25:28.303Z,68.09
2023-04-18T11:28:00.049Z,68.40
2023-04-18T11:30:36.199Z,68.60
2023-04-18T11:33:09.279Z,68.15
2023-04-18T11:35:42.908Z,68.66
2023-04-18T11:38:14.256Z,69.13
2023-04-18T11:40:49.884Z,68.24
2023-04-18T11:43:22.859Z,66.64
2023-04-18T11:45:59.790Z,66.49
2023-04-18T11:48:42.281Z,65.77
2023-04-18T11:51:38.900Z,66.55
2023-04-18T11:54:36.346Z,67.31
2023-04-18T11:57:06.591Z,66.85
2023-04-18T11:59:38.288Z,66.03
2023-04-18T12:02:16.043Z,66.01
2023-04-18T12:04:56.896Z,65.90
2023-04-18T12:07:41.504Z,65.67
2023-04-18T12:10:23.650Z,65.26
2023-04-18T12:12:54.581Z,65.45
2023-04-18T12:15:28.446Z,64.69
2023-04-18T12:18:02.739Z,64.89
2023-04-18T12:20:46.524Z,64.97
2023-04-18T12:23:31.549Z,65.28
2023-04-18T12:26:07.847Z,64.98
2023-04-18T12:28:36.316Z,63.99
2023-04-18T12:31:07.473Z,64.85
2023-04-18T12:33:36.979Z,63.63
2023-04-18T12:36:06.231Z,64.31
2023-04-18T12:38:35.160Z,64.27
2023-04-18T12:41:03.244Z,63.49
2023-04-18T12:43:40.341Z,64.29
2023-04-18T12:46:08.446Z,63.72
2023-04-18T12:48:36.789Z,63.57
2023-04-18T12:51:04.978Z,63.56
2023-04-18T12:53:33.082Z,63.12
2023-04-18T12:56:01.182Z,63.47
2023-04-18T12:58:29.087Z,63.53
2023-04-18T13:00:57.998Z,63.84
2023-04-18T13:03:29.406Z,63.69
2023-04-18T13:05:57.639Z,63.52
2023-04-18T13:08:26.064Z,64.18
2023-04-18T13:10:54.078Z,64.06
2023-04-18T13:13:22.114Z,64.08
2023-04-18T13:15:51.594Z,63.66
2023-04-18T13:18:19.844Z,62.95
2023-04-18T13:20:47.897Z,62.76
2023-04-18T13:23:15.905Z,63.11
2023-04-18T13:25:44.197Z,62.69
2023-04-18T13:28:12.198Z,62.89
2023-04-18T13:30:40.310Z,62.52
2023-04-18T13:33:08.387Z,61.35
2023-04-18T13:35:37.661Z,61.93
2023-04-18T13:38:06.095Z,62.26
2023-04-18T13:40:34.289Z,62.07
2023-04-18T13:43:02.488Z,61.65
2023-04-18T13:45:30.747Z,61.10
2023-04-18T13:47:59.214Z,61.77
2023-04-18T13:50:27.422Z,62.15
2023-04-18T13:52:55.489Z,61.54
2023-04-18T13:55:24.310Z,61.66
2023-04-18T13:57:55.072Z,61.90
2023-04-18T14:00:23.409Z,61.27
2023-04-18T14:02:51.859Z,61.09
2023-04-18T14:05:19.974Z,61.39
2023-04-18T14:07:48.936Z,60.24
2023-04-18T14:10:17.112Z,60.28
2023-04-18T14:12:46.057Z,61.00
2023-04-18T14:15:14.325Z,61.62
2023-04-18T14:17:45.242Z,60.90
2023-04-18T14:20:15.926Z,61.37
2023-04-18T14:22:44.185Z,60.95
2023-04-18T14:25:14.490Z,60.81
2023-04-18T14:27:43.284Z,59.97
2023-04-18T14:30:11.835Z,60.62
2023-04-18T14:32:40.612Z,60.78
2023-04-18T14:35:10.409Z,60.68
2023-04-18T14:37:38.537Z,60.02
2023-04-18T14:40:08.289Z,60.41
2023-04-18T14:42:36.588Z,60.44
2023-04-18T14:45:07.772Z,60.33
2023-04-18T14:47:35.990Z,60.44
2023-04-18T14:50:04.456Z,60.58
2023-04-18T14:52:32.635Z,58.98
2023-04-18T14:55:00.559Z,58.97
2023-04-18T14:57:31.306Z,59.35
2023-04-18T14:59:59.486Z,59.72
2023-04-18T15:02:27.455Z,59.25
2023-04-18T15:04:56.170Z,59.51
2023-04-18T15:07:24.856Z,59.19
2023-04-18T15:09:52.807Z,59.42
2023-04-18T15:12:20.974Z,59.92
2023-04-18T15:14:52.006Z,59.67
2023-04-18T15:17:20.500Z,59.14
2023-04-18T15:19:49.320Z,58.41
2023-04-18T15:22:20.413Z,58.64
2023-04-18T15:24:52.167Z,59.44
2023-04-18T15:27:20.354Z,59.06
2023-04-18T15:29:48.295Z,60.08
2023-04-18T15:32:18.322Z,59.14
2023-04-18T15:34:46.787Z,59.56
2023-04-18T15:37:14.899Z,59.13
2023-04-18T15:39:42.949Z,58.43
2023-04-18T15:42:11.357Z,58.97
2023-04-18T15:44:39.698Z,58.10
2023-04-18T15:47:12.938Z,56.66
2023-04-18T15:49:43.274Z,56.76
2023-04-18T15:52:11.842Z,57.10
2023-04-18T15:54:43.048Z,57.03
2023-04-18T15:57:12.299Z,58.01
2023-04-18T15:59:40.329Z,56.17
2023-04-18T16:02:09.485Z,56.51
2023-04-18T16:04:37.928Z,57.71
2023-04-18T16:07:06.525Z,58.15
2023-04-18T16:09:34.730Z,57.75
2023-04-18T16:12:03.400Z,57.87
2023-04-18T16:14:32.197Z,57.78
2023-04-18T16:17:00.729Z,57.87
2023-04-18T16:19:28.756Z,57.85
2023-04-18T16:21:57.371Z,58.19
2023-04-18T16:24:25.937Z,58.53
2023-04-18T16:26:55.668Z,58.29
2023-04-18T16:29:23.960Z,58.65
2023-04-18T16:31:52.215Z,58.86
2023-04-18T16:34:20.783Z,58.90
2023-04-18T16:36:50.982Z,59.11
2023-04-18T16:39:19.657Z,59.56
2023-04-18T16:41:47.836Z,59.63
2023-04-18T16:44:16.190Z,59.55
2023-04-18T16:46:44.541Z,59.44
2023-04-18T16:49:12.916Z,59.68
2023-04-18T16:51:40.929Z,59.61
2023-04-18T16:54:09.143Z,59.42
2023-04-18T16:56:37.779Z,59.28
2023-04-18T16:59:09.278Z,59.70
2023-04-18T17:01:37.880Z,60.04
2023-04-18T17:04:06.264Z,60.41
2023-04-18T17:06:34.429Z,60.19
2023-04-18T17:09:02.676Z,60.44
2023-04-18T17:11:32.590Z,60.53
2023-04-18T17:14:00.813Z,60.45
2023-04-18T17:16:28.777Z,60.81
2023-04-18T17:18:57.778Z,61.14
2023-04-18T17:21:27.472Z,60.73
2023-04-18T17:23:56.538Z,61.18
2023-04-18T17:26:26.693Z,61.23
2023-04-18T17:28:54.730Z,61.57
2023-04-18T17:31:22.794Z,61.98
2023-04-18T17:33:50.998Z,62.19
2023-04-18T17:36:19.066Z,62.19
2023-04-18T17:38:49.695Z,62.52
2023-04-18T17:41:20.505Z,62.43
2023-04-18T17:43:51.041Z,62.75
2023-04-18T17:46:19.684Z,63.19
2023-04-18T17:48:47.583Z,63.47
2023-04-18T17:51:19.659Z,63.88
2023-04-18T17:53:47.711Z,63.63
2023-04-18T17:56:15.737Z,64.00
2023-04-18T17:58:43.758Z,64.60
2023-04-18T18:01:19.886Z,64.64
2023-04-18T18:03:48.851Z,64.27
2023-04-18T18:06:17.297Z,64.76
2023-04-18T18:08:45.357Z,64.70
2023-04-18T18:11:13.901Z,65.34
2023-04-18T18:13:42.355Z,65.90
2023-04-18T18:16:10.320Z,65.88
2023-04-18T18:18:39.153Z,66.16
2023-04-18T18:21:07.304Z,66.25
2023-04-18T18:23:35.608Z,65.70
2023-04-18T18:26:04.430Z,66.03
2023-04-18T18:28:33.295Z,65.97
2023-04-18T18:31:01.479Z,65.83
2023-04-18T18:33:29.745Z,66.16
2023-04-18T18:35:58.650Z,66.08
2023-04-18T18:38:27.092Z,66.04
2023-04-18T18:40:55.222Z,66.00
2023-04-18T18:43:26.715Z,65.83
2023-04-18T18:45:54.804Z,65.75
2023-04-18T18:48:24.274Z,65.82
2023-04-18T18:50:52.549Z,65.60
2023-04-18T18:53:20.640Z,65.62
2023-04-18T18:55:48.682Z,66.06
2023-04-18T18:58:16.829Z,65.71
2023-04-18T19:00:47.051Z,65.67
2023-04-18T19:03:17.092Z,65.95
2023-04-18T19:05:47.972Z,65.53
2023-04-18T19:08:15.859Z,65.75
2023-04-18T19:10:44.359Z,65.64
2023-04-18T19:13:12.501Z,65.75
2023-04-18T19:15:40.699Z,65.88
2023-04-18T19:18:08.909Z,65.93
2023-04-18T19:20:39.220Z,66.14
2023-04-18T19:23:07.517Z,66.33
2023-04-18T19:25:36.426Z,66.33
2023-04-18T19:28:06.004Z,66.45
2023-04-18T19:30:33.892Z,66.48
2023-04-18T19:33:02.116Z,66.62
2023-04-18T19:35:30.422Z,66.46
2023-04-18T19:38:01.848Z,66.93
2023-04-18T19:40:30.100Z,66.94
2023-04-18T19:42:58.419Z,66.83
2023-04-18T19:45:26.864Z,67.16
2023-04-18T19:47:55.694Z,67.13
2023-04-18T19:50:23.615Z,67.25
2023-04-18T19:52:51.708Z,67.30
2023-04-18T19:55:19.826Z,66.99
2023-04-18T19:57:48.498Z,67.18
2023-04-18T20:00:16.769Z,67.22
2023-04-18T20:02:45.018Z,67.19
2023-04-18T20:05:16.109Z,67.27
2023-04-18T20:07:44.568Z,67.24
2023-04-18T20:10:13.016Z,67.30
2023-04-18T20:12:41.172Z,67.25
2023-04-18T20:15:09.499Z,67.07
2023-04-18T20:17:37.825Z,67.08
2023-04-18T20:20:09.119Z,67.09
2023-04-18T20:22:38.788Z,67.08
2023-04-18T20:25:09.222Z,67.08
2023-04-18T20:27:37.075Z,67.12
2023-04-18T20:30:06.472Z,67.21
2023-04-18T20:32:36.430Z,67.33
2023-04-18T20:35:04.719Z,67.61
2023-04-18T20:37:36.923Z,67.85
2023-04-18T20:40:08.338Z,67.70
2023-04-18T20:42:37.328Z,67.81
2023-04-18T20:45:06.530Z,68.11
2023-04-18T20:47:34.822Z,68.29
2023-04-18T20:50:03.472Z,68.47
2023-04-18T20:52:33.005Z,68.70
2023-04-18T20:55:01.234Z,68.74
2023-04-18T20:57:29.300Z,69.16
2023-04-18T21:00:02.417Z,69.16
2023-04-18T21:02:30.983Z,69.56
2023-04-18T21:04:59.675Z,69.54
2023-04-18T21:07:31.436Z,69.41
2023-04-18T21:10:00.034Z,69.55
2023-04-18T21:12:29.719Z,69.68
2023-04-18T21:14:57.762Z,70.12
2023-04-18T21:17:26.096Z,70.25
2023-04-18T21:19:55.957Z,70.39
2023-04-18T21:22:23.886Z,70.69
2023-04-18T21:24:51.867Z,70.75
2023-04-18T21:27:19.842Z,70.75
2023-04-18T21:29:48.269Z,70.87
2023-04-18T21:32:16.275Z,70.78
2023-04-18T21:34:44.299Z,70.82
2023-04-18T21:37:12.361Z,71.09
2023-04-18T21:39:40.465Z,71.17
2023-04-18T21:42:08.975Z,71.18
2023-04-18T21:44:37.605Z,71.27
2023-04-18T21:47:05.854Z,71.27
2023-04-18T21:49:35.171Z,71.38
2023-04-18T21:52:03.132Z,71.65
2023-04-18T21:54:31.224Z,71.63
2023-04-18T21:57:00.618Z,71.61
2023-04-18T21:59:28.739Z,71.55
2023-04-18T22:01:57.078Z,71.37
2023-04-18T22:04:26.651Z,71.59
2023-04-18T22:06:55.085Z,71.94
2023-04-18T22:09:23.544Z,71.99
2023-04-18T22:11:51.878Z,72.06
2023-04-18T22:14:20.374Z,72.06
2023-04-18T22:16:50.158Z,72.23
2023-04-18T22:19:18.756Z,72.14
2023-04-18T22:21:46.887Z,72.06
2023-04-18T22:24:15.149Z,72.36
2023-04-18T22:26:43.302Z,72.57
2023-04-18T22:29:11.612Z,72.55
2023-04-18T22:31:42.944Z,72.62
2023-04-18T22:34:10.817Z,72.78
2023-04-18T22:36:39.073Z,73.04
2023-04-18T22:39:07.443Z,73.02
2023-04-18T22:41:35.351Z,72.75
2023-04-18T22:44:03.596Z,72.74
2023-04-18T22:46:32.961Z,72.72
2023-04-18T22:49:01.162Z,72.94
2023-04-18T22:51:29.286Z,73.22
2023-04-18T22:53:57.515Z,73.29
2023-04-18T22:56:25.554Z,73.45
2023-04-18T22:58:53.513Z,73.17
2023-04-18T23:01:21.707Z,73.25
2023-04-18T23:03:49.760Z,73.61
2023-04-18T23:06:17.927Z,73.62
2023-04-18T23:08:46.114Z,73.65
2023-04-18T23:11:14.091Z,74.38
2023-04-18T23:13:42.162Z,74.32
2023-04-18T23:16:10.454Z,74.22
2023-04-18T23:18:38.482Z,75.34
2023-04-18T23:21:06.583Z,76.52
2023-04-18T23:23:34.665Z,76.77
2023-04-18T23:26:02.664Z,77.06
2023-04-18T23:28:30.644Z,76.65
2023-04-18T23:30:58.689Z,76.67
2023-04-18T23:33:26.669Z,77.02
2023-04-18T23:35:54.662Z,76.89
2023-04-18T23:38:22.640Z,77.09
2023-04-18T23:40:50.682Z,76.66
2023-04-18T23:43:18.920Z,76.45
2023-04-18T23:45:46.944Z,76.65
2023-04-18T23:48:14.886Z,77.63
2023-04-18T23:50:50.624Z,77.86
2023-04-18T23:53:22.671Z,78.21
2023-04-18T23:55:51.116Z,78.74
2023-04-18T23:58:19.339Z,79.44
